sensor_id;sensor_type;location;lat;lon;timestamp;pressure;altitude;pressure_sealevel;temperature;humidity
78675;BME280;67990;59.826;30.108;2023-07-02T00:01:53;99371.09;;;17.77;71.95
78675;BME280;67990;59.826;30.108;2023-07-02T00:04:20;99383.00;;;17.68;71.95
78675;BME280;67990;59.826;30.108;2023-07-02T00:06:47;99373.81;;;17.64;72.69
78675;BME280;67990;59.826;30.108;2023-07-02T00:09:15;99376.84;;;17.74;72.16
78675;BME280;67990;59.826;30.108;2023-07-02T00:11:43;99373.16;;;17.75;72.13
78675;BME280;67990;59.826;30.108;2023-07-02T00:14:13;99377.09;;;17.66;72.84
78675;BME280;67990;59.826;30.108;2023-07-02T00:16:43;99376.06;;;17.67;72.69
78675;BME280;67990;59.826;30.108;2023-07-02T00:19:11;99376.69;;;17.62;72.29
78675;BME280;67990;59.826;30.108;2023-07-02T00:21:38;99375.47;;;17.58;72.34
78675;BME280;67990;59.826;30.108;2023-07-02T00:24:06;99376.50;;;17.57;72.09
78675;BME280;67990;59.826;30.108;2023-07-02T00:26:35;99360.41;;;17.52;72.03
78675;BME280;67990;59.826;30.108;2023-07-02T00:29:04;99361.03;;;17.48;72.26
78675;BME280;67990;59.826;30.108;2023-07-02T00:31:33;99359.78;;;17.50;72.05
78675;BME280;67990;59.826;30.108;2023-07-02T00:34:03;99366.13;;;17.49;72.24
78675;BME280;67990;59.826;30.108;2023-07-02T00:36:31;99372.06;;;17.51;71.75
78675;BME280;67990;59.826;30.108;2023-07-02T00:38:58;99365.75;;;17.46;71.56
78675;BME280;67990;59.826;30.108;2023-07-02T00:41:26;99365.13;;;17.37;71.80
78675;BME280;67990;59.826;30.108;2023-07-02T00:43:53;99359.44;;;17.34;71.52
78675;BME280;67990;59.826;30.108;2023-07-02T00:46:22;99359.03;;;17.37;70.98
78675;BME280;67990;59.826;30.108;2023-07-02T00:48:52;99355.94;;;17.33;71.37
78675;BME280;67990;59.826;30.108;2023-07-02T00:51:23;99356.38;;;17.37;71.17
78675;BME280;67990;59.826;30.108;2023-07-02T00:53:51;99345.13;;;17.35;70.72
78675;BME280;67990;59.826;30.108;2023-07-02T00:56:19;99344.75;;;17.31;70.90
78675;BME280;67990;59.826;30.108;2023-07-02T00:58:47;99344.75;;;17.31;70.43
78675;BME280;67990;59.826;30.108;2023-07-02T01:01:16;99335.13;;;17.37;70.25
78675;BME280;67990;59.826;30.108;2023-07-02T01:03:51;99337.38;;;17.33;70.29
78675;BME280;67990;59.826;30.108;2023-07-02T01:06:26;99333.75;;;17.21;70.59
78675;BME280;67990;59.826;30.108;2023-07-02T01:08:55;99328.22;;;17.23;70.70
78675;BME280;67990;59.826;30.108;2023-07-02T01:11:25;99336.00;;;17.18;71.11
78675;BME280;67990;59.826;30.108;2023-07-02T01:13:59;99339.69;;;17.17;71.32
78675;BME280;67990;59.826;30.108;2023-07-02T01:16:29;99333.59;;;17.10;71.04
78675;BME280;67990;59.826;30.108;2023-07-02T01:18:59;99343.63;;;17.08;71.46
78675;BME280;67990;59.826;30.108;2023-07-02T01:21:33;99344.03;;;17.05;71.00
78675;BME280;67990;59.826;30.108;2023-07-02T01:24:00;99337.47;;;17.07;71.32
78675;BME280;67990;59.826;30.108;2023-07-02T01:26:29;99333.78;;;17.08;71.05
78675;BME280;67990;59.826;30.108;2023-07-02T01:29:00;99338.53;;;17.00;71.15
78675;BME280;67990;59.826;30.108;2023-07-02T01:31:27;99333.63;;;16.97;71.50
78675;BME280;67990;59.826;30.108;2023-07-02T01:33:54;99331.16;;;17.02;71.06
78675;BME280;67990;59.826;30.108;2023-07-02T01:36:21;99339.94;;;17.09;71.17
78675;BME280;67990;59.826;30.108;2023-07-02T01:38:49;99331.94;;;17.15;71.51
78675;BME280;67990;59.826;30.108;2023-07-02T01:41:17;99335.41;;;17.16;71.18
78675;BME280;67990;59.826;30.108;2023-07-02T01:43:44;99322.13;;;17.22;70.91
78675;BME280;67990;59.826;30.108;2023-07-02T01:46:11;99329.03;;;17.30;70.60
78675;BME280;67990;59.826;30.108;2023-07-02T01:48:38;99331.69;;;17.30;70.59
78675;BME280;67990;59.826;30.108;2023-07-02T01:51:05;99331.47;;;17.31;70.74
78675;BME280;67990;59.826;30.108;2023-07-02T01:53:32;99336.16;;;17.42;70.52
78675;BME280;67990;59.826;30.108;2023-07-02T01:56:01;99342.25;;;17.36;70.43
78675;BME280;67990;59.826;30.108;2023-07-02T01:58:28;99343.44;;;17.53;69.95
78675;BME280;67990;59.826;30.108;2023-07-02T02:00:56;99332.19;;;17.58;69.70
78675;BME280;67990;59.826;30.108;2023-07-02T02:03:23;99337.91;;;17.55;69.41
78675;BME280;67990;59.826;30.108;2023-07-02T02:05:50;99336.72;;;17.51;69.80
78675;BME280;67990;59.826;30.108;2023-07-02T02:08:18;99340.56;;;17.55;70.11
78675;BME280;67990;59.826;30.108;2023-07-02T02:10:45;99329.31;;;17.59;69.96
78675;BME280;67990;59.826;30.108;2023-07-02T02:13:13;99337.09;;;17.54;69.70
78675;BME280;67990;59.826;30.108;2023-07-02T02:15:40;99331.97;;;17.59;69.96
78675;BME280;67990;59.826;30.108;2023-07-02T02:18:07;99330.28;;;17.65;69.80
78675;BME280;67990;59.826;30.108;2023-07-02T02:20:35;99333.50;;;17.73;69.97
78675;BME280;67990;59.826;30.108;2023-07-02T02:23:02;99337.84;;;17.68;69.88
78675;BME280;67990;59.826;30.108;2023-07-02T02:25:30;99345.03;;;17.61;69.66
78675;BME280;67990;59.826;30.108;2023-07-02T02:27:57;99343.06;;;17.50;70.48
78675;BME280;67990;59.826;30.108;2023-07-02T02:30:26;99332.84;;;17.47;70.75
78675;BME280;67990;59.826;30.108;2023-07-02T02:32:53;99328.31;;;17.54;71.03
78675;BME280;67990;59.826;30.108;2023-07-02T02:35:21;99326.56;;;17.72;70.16
78675;BME280;67990;59.826;30.108;2023-07-02T02:37:49;99324.09;;;17.77;70.20
78675;BME280;67990;59.826;30.108;2023-07-02T02:40:17;99332.94;;;17.71;70.25
78675;BME280;67990;59.826;30.108;2023-07-02T02:42:44;99330.22;;;17.78;70.57
78675;BME280;67990;59.826;30.108;2023-07-02T02:45:11;99333.59;;;17.60;70.49
78675;BME280;67990;59.826;30.108;2023-07-02T02:47:39;99341.41;;;17.55;70.65
78675;BME280;67990;59.826;30.108;2023-07-02T02:50:07;99340.50;;;17.68;70.71
78675;BME280;67990;59.826;30.108;2023-07-02T02:52:36;99342.53;;;17.72;70.35
78675;BME280;67990;59.826;30.108;2023-07-02T02:55:05;99346.41;;;17.70;70.44
78675;BME280;67990;59.826;30.108;2023-07-02T02:57:33;99343.94;;;17.75;70.35
78675;BME280;67990;59.826;30.108;2023-07-02T03:00:01;99341.19;;;17.88;70.32
78675;BME280;67990;59.826;30.108;2023-07-02T03:02:31;99337.31;;;17.84;69.75
78675;BME280;67990;59.826;30.108;2023-07-02T03:04:59;99337.94;;;17.86;69.47
78675;BME280;67990;59.826;30.108;2023-07-02T03:07:28;99338.69;;;17.93;69.92
78675;BME280;67990;59.826;30.108;2023-07-02T03:09:55;99335.41;;;17.97;69.09
78675;BME280;67990;59.826;30.108;2023-07-02T03:12:23;99335.88;;;17.88;69.28
78675;BME280;67990;59.826;30.108;2023-07-02T03:14:50;99342.00;;;17.88;69.29
78675;BME280;67990;59.826;30.108;2023-07-02T03:17:18;99343.25;;;17.86;69.53
78675;BME280;67990;59.826;30.108;2023-07-02T03:19:46;99343.91;;;18.06;68.74
78675;BME280;67990;59.826;30.108;2023-07-02T03:22:15;99341.66;;;18.09;68.86
78675;BME280;67990;59.826;30.108;2023-07-02T03:24:42;99348.97;;;18.14;68.58
78675;BME280;67990;59.826;30.108;2023-07-02T03:27:09;99347.06;;;18.21;68.69
78675;BME280;67990;59.826;30.108;2023-07-02T03:29:36;99349.94;;;18.19;67.84
78675;BME280;67990;59.826;30.108;2023-07-02T03:32:04;99348.06;;;18.26;67.88
78675;BME280;67990;59.826;30.108;2023-07-02T03:34:32;99344.72;;;18.31;67.36
78675;BME280;67990;59.826;30.108;2023-07-02T03:36:59;99346.34;;;18.38;67.37
78675;BME280;67990;59.826;30.108;2023-07-02T03:39:27;99351.47;;;18.40;67.33
78675;BME280;67990;59.826;30.108;2023-07-02T03:41:54;99349.25;;;18.55;67.11
78675;BME280;67990;59.826;30.108;2023-07-02T03:44:21;99347.38;;;18.62;66.76
78675;BME280;67990;59.826;30.108;2023-07-02T03:46:48;99349.59;;;18.65;66.78
78675;BME280;67990;59.826;30.108;2023-07-02T03:49:15;99351.78;;;18.50;67.19
78675;BME280;67990;59.826;30.108;2023-07-02T03:51:42;99347.75;;;18.41;67.00
78675;BME280;67990;59.826;30.108;2023-07-02T03:54:09;99350.16;;;18.49;67.07
78675;BME280;67990;59.826;30.108;2023-07-02T03:56:38;99349.53;;;18.47;67.11
78675;BME280;67990;59.826;30.108;2023-07-02T03:59:05;99345.97;;;18.59;66.81
78675;BME280;67990;59.826;30.108;2023-07-02T04:01:32;99348.84;;;18.58;66.68
78675;BME280;67990;59.826;30.108;2023-07-02T04:03:59;99343.09;;;18.61;67.07
78675;BME280;67990;59.826;30.108;2023-07-02T04:06:26;99337.69;;;18.67;66.76
78675;BME280;67990;59.826;30.108;2023-07-02T04:08:54;99337.47;;;18.69;66.79
78675;BME280;67990;59.826;30.108;2023-07-02T04:11:20;99343.41;;;18.89;66.56
78675;BME280;67990;59.826;30.108;2023-07-02T04:13:49;99330.53;;;19.04;66.00
78675;BME280;67990;59.826;30.108;2023-07-02T04:16:16;99336.31;;;19.19;65.92
78675;BME280;67990;59.826;30.108;2023-07-02T04:18:43;99334.81;;;19.23;66.02
78675;BME280;67990;59.826;30.108;2023-07-02T04:21:10;99343.41;;;19.25;65.60
78675;BME280;67990;59.826;30.108;2023-07-02T04:23:37;99340.66;;;19.31;65.27
78675;BME280;67990;59.826;30.108;2023-07-02T04:26:04;99348.19;;;18.98;66.33
78675;BME280;67990;59.826;30.108;2023-07-02T04:28:32;99348.53;;;19.26;66.23
78675;BME280;67990;59.826;30.108;2023-07-02T04:31:01;99352.72;;;19.34;66.13
78675;BME280;67990;59.826;30.108;2023-07-02T04:33:28;99354.44;;;19.46;65.79
78675;BME280;67990;59.826;30.108;2023-07-02T04:36:01;99345.44;;;19.59;65.63
78675;BME280;67990;59.826;30.108;2023-07-02T04:38:28;99345.19;;;19.78;64.98
78675;BME280;67990;59.826;30.108;2023-07-02T04:40:55;99356.69;;;19.61;65.38
78675;BME280;67990;59.826;30.108;2023-07-02T04:43:27;99354.47;;;19.28;66.37
78675;BME280;67990;59.826;30.108;2023-07-02T04:45:55;99358.53;;;19.31;66.27
78675;BME280;67990;59.826;30.108;2023-07-02T04:48:23;99359.22;;;19.38;65.41
78675;BME280;67990;59.826;30.108;2023-07-02T04:50:51;99345.75;;;19.80;65.31
78675;BME280;67990;59.826;30.108;2023-07-02T04:53:18;99359.84;;;20.74;63.37
78675;BME280;67990;59.826;30.108;2023-07-02T04:55:45;99357.75;;;20.88;62.02
78675;BME280;67990;59.826;30.108;2023-07-02T04:58:12;99358.03;;;21.38;60.74
78675;BME280;67990;59.826;30.108;2023-07-02T05:00:39;99371.00;;;21.85;59.44
78675;BME280;67990;59.826;30.108;2023-07-02T05:03:06;99362.69;;;21.98;58.69
78675;BME280;67990;59.826;30.108;2023-07-02T05:05:34;99360.63;;;22.50;57.40
78675;BME280;67990;59.826;30.108;2023-07-02T05:08:02;99366.06;;;22.22;57.85
78675;BME280;67990;59.826;30.108;2023-07-02T05:10:30;99353.66;;;22.32;57.81
78675;BME280;67990;59.826;30.108;2023-07-02T05:12:57;99364.03;;;22.45;57.30
78675;BME280;67990;59.826;30.108;2023-07-02T05:15:24;99362.41;;;22.28;57.19
78675;BME280;67990;59.826;30.108;2023-07-02T05:17:51;99369.13;;;21.18;59.96
78675;BME280;67990;59.826;30.108;2023-07-02T05:20:19;99368.78;;;22.10;58.93
78675;BME280;67990;59.826;30.108;2023-07-02T05:22:47;99366.50;;;23.01;56.97
78675;BME280;67990;59.826;30.108;2023-07-02T05:25:14;99371.06;;;22.84;56.33
78675;BME280;67990;59.826;30.108;2023-07-02T05:27:41;99363.88;;;22.68;56.34
78675;BME280;67990;59.826;30.108;2023-07-02T05:30:09;99375.81;;;22.61;56.85
78675;BME280;67990;59.826;30.108;2023-07-02T05:32:37;99369.41;;;22.62;56.04
78675;BME280;67990;59.826;30.108;2023-07-02T05:35:05;99383.00;;;22.27;57.06
78675;BME280;67990;59.826;30.108;2023-07-02T05:37:32;99373.00;;;22.06;57.17
78675;BME280;67990;59.826;30.108;2023-07-02T05:40:00;99375.69;;;22.39;56.77
78675;BME280;67990;59.826;30.108;2023-07-02T05:42:28;99370.56;;;23.42;54.74
78675;BME280;67990;59.826;30.108;2023-07-02T05:44:55;99361.22;;;24.24;53.36
78675;BME280;67990;59.826;30.108;2023-07-02T05:47:22;99368.84;;;24.63;50.79
78675;BME280;67990;59.826;30.108;2023-07-02T05:49:49;99365.41;;;25.91;48.76
78675;BME280;67990;59.826;30.108;2023-07-02T05:52:16;99372.06;;;25.68;49.23
78675;BME280;67990;59.826;30.108;2023-07-02T05:54:44;99369.78;;;26.37;47.54
78675;BME280;67990;59.826;30.108;2023-07-02T05:57:13;99370.59;;;26.48;46.46
78675;BME280;67990;59.826;30.108;2023-07-02T05:59:40;99366.28;;;25.30;47.36
78675;BME280;67990;59.826;30.108;2023-07-02T06:02:08;99367.94;;;24.94;49.00
78675;BME280;67990;59.826;30.108;2023-07-02T06:04:36;99370.81;;;24.78;47.76
78675;BME280;67990;59.826;30.108;2023-07-02T06:07:04;99374.97;;;27.52;44.85
78675;BME280;67990;59.826;30.108;2023-07-02T06:09:31;99367.78;;;28.63;41.29
78675;BME280;67990;59.826;30.108;2023-07-02T06:11:59;99369.88;;;30.26;38.26
78675;BME280;67990;59.826;30.108;2023-07-02T06:14:27;99381.00;;;28.31;41.19
78675;BME280;67990;59.826;30.108;2023-07-02T06:16:55;99378.06;;;27.89;40.41
78675;BME280;67990;59.826;30.108;2023-07-02T06:19:23;99379.53;;;27.62;42.30
78675;BME280;67990;59.826;30.108;2023-07-02T06:21:50;99378.41;;;26.89;42.12
78675;BME280;67990;59.826;30.108;2023-07-02T06:24:17;99381.31;;;28.25;40.89
78675;BME280;67990;59.826;30.108;2023-07-02T06:26:44;99372.66;;;28.61;39.76
78675;BME280;67990;59.826;30.108;2023-07-02T06:29:11;99377.03;;;29.98;38.35
78675;BME280;67990;59.826;30.108;2023-07-02T06:31:40;99372.47;;;30.95;35.52
78675;BME280;67990;59.826;30.108;2023-07-02T06:34:07;99382.03;;;31.06;34.54
78675;BME280;67990;59.826;30.108;2023-07-02T06:36:36;99370.09;;;31.21;34.06
78675;BME280;67990;59.826;30.108;2023-07-02T06:39:03;99379.00;;;30.94;35.85
78675;BME280;67990;59.826;30.108;2023-07-02T06:41:30;99376.38;;;32.33;31.62
78675;BME280;67990;59.826;30.108;2023-07-02T06:43:58;99381.59;;;32.73;31.49
78675;BME280;67990;59.826;30.108;2023-07-02T06:46:25;99389.88;;;30.62;33.16
78675;BME280;67990;59.826;30.108;2023-07-02T06:48:54;99385.44;;;30.66;35.12
78675;BME280;67990;59.826;30.108;2023-07-02T06:51:22;99389.34;;;30.09;35.18
78675;BME280;67990;59.826;30.108;2023-07-02T06:53:51;99386.22;;;29.60;36.20
78675;BME280;67990;59.826;30.108;2023-07-02T06:56:19;99387.03;;;28.85;37.19
78675;BME280;67990;59.826;30.108;2023-07-02T06:58:47;99392.84;;;28.35;39.37
78675;BME280;67990;59.826;30.108;2023-07-02T07:01:14;99385.63;;;28.64;39.39
78675;BME280;67990;59.826;30.108;2023-07-02T07:03:42;99383.97;;;28.30;39.11
78675;BME280;67990;59.826;30.108;2023-07-02T07:06:11;99396.97;;;28.28;38.75
78675;BME280;67990;59.826;30.108;2023-07-02T07:08:40;99390.91;;;28.46;39.04
78675;BME280;67990;59.826;30.108;2023-07-02T07:11:10;99383.19;;;28.63;39.39
78675;BME280;67990;59.826;30.108;2023-07-02T07:13:37;99391.53;;;28.33;40.15
78675;BME280;67990;59.826;30.108;2023-07-02T07:16:04;99395.50;;;28.45;38.73
78675;BME280;67990;59.826;30.108;2023-07-02T07:18:37;99397.00;;;27.84;41.10
78675;BME280;67990;59.826;30.108;2023-07-02T07:21:04;99403.41;;;28.99;38.42
78675;BME280;67990;59.826;30.108;2023-07-02T07:23:38;99399.06;;;28.36;39.68
78675;BME280;67990;59.826;30.108;2023-07-02T07:26:07;99396.06;;;30.49;35.51
78675;BME280;67990;59.826;30.108;2023-07-02T07:28:49;99386.28;;;30.16;34.73
78675;BME280;67990;59.826;30.108;2023-07-02T07:31:18;99389.81;;;30.17;35.16
78675;BME280;67990;59.826;30.108;2023-07-02T07:33:47;99383.66;;;31.61;33.64
78675;BME280;67990;59.826;30.108;2023-07-02T07:36:19;99394.63;;;30.38;33.76
78675;BME280;67990;59.826;30.108;2023-07-02T07:38:52;99406.84;;;30.68;32.42
78675;BME280;67990;59.826;30.108;2023-07-02T07:41:22;99409.19;;;30.05;34.22
78675;BME280;67990;59.826;30.108;2023-07-02T07:44:00;99395.59;;;28.69;35.94
78675;BME280;67990;59.826;30.108;2023-07-02T07:46:30;99402.69;;;28.88;36.87
78675;BME280;67990;59.826;30.108;2023-07-02T07:49:12;99408.66;;;30.91;33.64
78675;BME280;67990;59.826;30.108;2023-07-02T07:51:50;99397.25;;;32.68;30.38
78675;BME280;67990;59.826;30.108;2023-07-02T07:54:28;99391.56;;;33.08;29.62
78675;BME280;67990;59.826;30.108;2023-07-02T07:57:00;99403.94;;;34.35;27.11
78675;BME280;67990;59.826;30.108;2023-07-02T07:59:56;99396.47;;;32.45;28.94
78675;BME280;67990;59.826;30.108;2023-07-02T08:02:25;99406.06;;;32.43;30.36
78675;BME280;67990;59.826;30.108;2023-07-02T08:04:57;99397.09;;;32.42;30.11
78675;BME280;67990;59.826;30.108;2023-07-02T08:07:27;99408.34;;;32.49;30.04
78675;BME280;67990;59.826;30.108;2023-07-02T08:10:00;99413.75;;;31.51;31.37
78675;BME280;67990;59.826;30.108;2023-07-02T08:12:30;99410.13;;;33.06;29.48
78675;BME280;67990;59.826;30.108;2023-07-02T08:14:59;99408.72;;;34.12;28.32
78675;BME280;67990;59.826;30.108;2023-07-02T08:17:30;99407.75;;;34.42;26.76
78675;BME280;67990;59.826;30.108;2023-07-02T08:20:05;99404.28;;;35.14;27.07
78675;BME280;67990;59.826;30.108;2023-07-02T08:22:45;99410.66;;;35.93;26.04
78675;BME280;67990;59.826;30.108;2023-07-02T08:25:21;99408.97;;;35.71;26.59
78675;BME280;67990;59.826;30.108;2023-07-02T08:27:56;99412.13;;;35.61;24.75
78675;BME280;67990;59.826;30.108;2023-07-02T08:30:26;99408.00;;;35.01;24.84
78675;BME280;67990;59.826;30.108;2023-07-02T08:32:57;99407.84;;;34.97;26.19
78675;BME280;67990;59.826;30.108;2023-07-02T08:35:31;99398.16;;;34.37;25.15
78675;BME280;67990;59.826;30.108;2023-07-02T08:38:01;99413.34;;;33.08;28.42
78675;BME280;67990;59.826;30.108;2023-07-02T08:40:45;99408.44;;;32.88;29.21
78675;BME280;67990;59.826;30.108;2023-07-02T08:43:20;99406.06;;;32.43;29.27
78675;BME280;67990;59.826;30.108;2023-07-02T08:45:50;99404.72;;;34.10;29.52
78675;BME280;67990;59.826;30.108;2023-07-02T08:48:28;99413.03;;;34.05;28.24
78675;BME280;67990;59.826;30.108;2023-07-02T08:51:03;99417.31;;;33.02;27.80
78675;BME280;67990;59.826;30.108;2023-07-02T08:53:34;99412.63;;;32.72;29.09
78675;BME280;67990;59.826;30.108;2023-07-02T08:56:05;99413.53;;;32.81;28.47
78675;BME280;67990;59.826;30.108;2023-07-02T08:58:36;99413.56;;;33.59;27.10
78675;BME280;67990;59.826;30.108;2023-07-02T09:01:12;99410.66;;;32.64;28.51
78675;BME280;67990;59.826;30.108;2023-07-02T09:03:51;99406.59;;;32.53;26.56
78675;BME280;67990;59.826;30.108;2023-07-02T09:06:48;99409.88;;;32.06;28.30
78675;BME280;67990;59.826;30.108;2023-07-02T09:09:22;99412.47;;;31.62;27.42
78675;BME280;67990;59.826;30.108;2023-07-02T09:12:01;99416.88;;;32.21;28.48
78675;BME280;67990;59.826;30.108;2023-07-02T09:14:58;99405.34;;;32.81;30.18
78675;BME280;67990;59.826;30.108;2023-07-02T09:17:36;99407.47;;;32.84;27.78
78675;BME280;67990;59.826;30.108;2023-07-02T09:20:07;99389.56;;;32.92;25.97
78675;BME280;67990;59.826;30.108;2023-07-02T09:22:37;99397.44;;;33.80;24.72
78675;BME280;67990;59.826;30.108;2023-07-02T09:25:36;99395.56;;;33.89;25.55
78675;BME280;67990;59.826;30.108;2023-07-02T09:28:19;99392.97;;;33.84;24.56
78675;BME280;67990;59.826;30.108;2023-07-02T09:30:56;99396.34;;;34.15;25.41
78675;BME280;67990;59.826;30.108;2023-07-02T09:33:34;99388.66;;;34.00;25.28
78675;BME280;67990;59.826;30.108;2023-07-02T09:36:07;99384.81;;;34.18;24.28
78675;BME280;67990;59.826;30.108;2023-07-02T09:38:41;99400.69;;;34.07;24.13
78675;BME280;67990;59.826;30.108;2023-07-02T09:41:11;99384.53;;;33.38;24.41
78675;BME280;67990;59.826;30.108;2023-07-02T09:43:47;99389.41;;;33.27;25.95
78675;BME280;67990;59.826;30.108;2023-07-02T09:46:19;99377.97;;;32.56;25.75
78675;BME280;67990;59.826;30.108;2023-07-02T09:48:53;99387.13;;;31.26;27.83
78675;BME280;67990;59.826;30.108;2023-07-02T09:51:23;99395.19;;;29.98;30.18
78675;BME280;67990;59.826;30.108;2023-07-02T09:54:01;99390.47;;;29.19;31.75
78675;BME280;67990;59.826;30.108;2023-07-02T09:56:43;99392.56;;;27.98;33.29
78675;BME280;67990;59.826;30.108;2023-07-02T09:59:16;99398.38;;;28.59;34.50
78675;BME280;67990;59.826;30.108;2023-07-02T10:01:45;99395.03;;;28.33;33.98
78675;BME280;67990;59.826;30.108;2023-07-02T10:04:16;99395.56;;;27.97;35.82
78675;BME280;67990;59.826;30.108;2023-07-02T10:06:47;99394.38;;;28.13;35.38
78675;BME280;67990;59.826;30.108;2023-07-02T10:09:18;99392.34;;;27.90;36.05
78675;BME280;67990;59.826;30.108;2023-07-02T10:11:53;99385.03;;;28.96;35.01
78675;BME280;67990;59.826;30.108;2023-07-02T10:14:45;99390.63;;;28.81;34.43
78675;BME280;67990;59.826;30.108;2023-07-02T10:17:31;99390.47;;;27.90;36.13
78675;BME280;67990;59.826;30.108;2023-07-02T10:20:19;99389.63;;;27.36;37.25
78675;BME280;67990;59.826;30.108;2023-07-02T10:22:52;99401.66;;;28.17;35.87
78675;BME280;67990;59.826;30.108;2023-07-02T10:25:33;99391.88;;;27.73;36.47
78675;BME280;67990;59.826;30.108;2023-07-02T10:28:15;99389.97;;;26.45;38.70
78675;BME280;67990;59.826;30.108;2023-07-02T10:30:45;99390.25;;;26.83;38.62
78675;BME280;67990;59.826;30.108;2023-07-02T10:33:14;99398.59;;;26.27;38.71
78675;BME280;67990;59.826;30.108;2023-07-02T10:35:49;99400.75;;;26.90;36.99
78675;BME280;67990;59.826;30.108;2023-07-02T10:38:20;99394.88;;;26.63;38.36
78675;BME280;67990;59.826;30.108;2023-07-02T10:40:57;99406.94;;;26.30;38.92
78675;BME280;67990;59.826;30.108;2023-07-02T10:43:26;99405.81;;;25.96;39.46
78675;BME280;67990;59.826;30.108;2023-07-02T10:45:57;99396.03;;;25.75;38.23
78675;BME280;67990;59.826;30.108;2023-07-02T10:48:27;99407.47;;;25.40;39.00
78675;BME280;67990;59.826;30.108;2023-07-02T10:50:58;99403.16;;;24.93;41.42
78675;BME280;67990;59.826;30.108;2023-07-02T10:53:27;99404.31;;;25.07;40.70
78675;BME280;67990;59.826;30.108;2023-07-02T10:56:03;99410.63;;;24.86;40.40
78675;BME280;67990;59.826;30.108;2023-07-02T10:58:42;99404.09;;;24.45;43.07
78675;BME280;67990;59.826;30.108;2023-07-02T11:01:13;99409.94;;;24.64;42.86
78675;BME280;67990;59.826;30.108;2023-07-02T11:04:01;99412.94;;;25.09;42.31
78675;BME280;67990;59.826;30.108;2023-07-02T11:06:32;99409.91;;;25.42;41.46
78675;BME280;67990;59.826;30.108;2023-07-02T11:09:16;99412.19;;;25.75;42.10
78675;BME280;67990;59.826;30.108;2023-07-02T11:11:54;99413.81;;;25.81;40.95
78675;BME280;67990;59.826;30.108;2023-07-02T11:14:33;99424.97;;;26.15;41.12
78675;BME280;67990;59.826;30.108;2023-07-02T11:17:31;99415.28;;;26.09;39.39
78675;BME280;67990;59.826;30.108;2023-07-02T11:20:08;99422.81;;;26.07;40.22
78675;BME280;67990;59.826;30.108;2023-07-02T11:22:41;99419.84;;;26.18;40.74
78675;BME280;67990;59.826;30.108;2023-07-02T11:25:18;99422.00;;;26.06;40.60
78675;BME280;67990;59.826;30.108;2023-07-02T11:28:02;99431.59;;;25.87;40.40
78675;BME280;67990;59.826;30.108;2023-07-02T11:30:45;99422.94;;;25.18;42.39
78675;BME280;67990;59.826;30.108;2023-07-02T11:33:20;99428.47;;;25.43;41.96
78675;BME280;67990;59.826;30.108;2023-07-02T11:35:52;99427.38;;;25.39;40.76
78675;BME280;67990;59.826;30.108;2023-07-02T11:38:31;99433.28;;;24.95;41.82
78675;BME280;67990;59.826;30.108;2023-07-02T11:41:11;99435.03;;;24.79;43.01
78675;BME280;67990;59.826;30.108;2023-07-02T11:43:51;99429.34;;;24.71;42.50
78675;BME280;67990;59.826;30.108;2023-07-02T11:46:22;99441.19;;;24.48;44.40
78675;BME280;67990;59.826;30.108;2023-07-02T11:48:54;99440.47;;;24.26;44.84
78675;BME280;67990;59.826;30.108;2023-07-02T11:51:24;99437.66;;;24.16;45.70
78675;BME280;67990;59.826;30.108;2023-07-02T11:53:53;99433.88;;;24.12;45.73
78675;BME280;67990;59.826;30.108;2023-07-02T11:56:25;99448.75;;;23.98;46.34
78675;BME280;67990;59.826;30.108;2023-07-02T11:59:00;99445.78;;;23.57;47.34
78675;BME280;67990;59.826;30.108;2023-07-02T12:01:32;99442.53;;;23.76;47.44
